Time;durP1;ratioP1;P1;durP2;ratioP2;P2;SDS_P1;SDS_P2;PMS_P1;PMS_P2;Temp;Humidity;BMP_temperature;BMP_pressure;BME280_temperature;BME280_humidity;BME280_pressure;Samples;Min_cycle;Max_cycle;Signal;HPM_P1;HPM_P2
2022/08/02 00:00:59;;;;;;;4.20;1.05;;;20.80;82.20;;;;;;4951535;28;20035;-78
2022/08/02 00:03:26;;;;;;;3.30;0.85;;;20.80;81.30;;;;;;4944226;28;20082;-83
2022/08/02 00:05:53;;;;;;;5.68;1.25;;;20.60;81.20;;;;;;4950645;28;20494;-79
2022/08/02 00:08:21;;;;;;;2.63;0.80;;;21.00;81.70;;;;;;4961804;28;20114;-81
2022/08/02 00:10:49;;;;;;;4.20;1.60;;;20.80;81.40;;;;;;4956299;28;20039;-79
2022/08/02 00:13:17;;;;;;;4.47;0.93;;;21.10;81.90;;;;;;4948932;28;20093;-78
2022/08/02 00:15:44;;;;;;;1.75;0.80;;;21.30;80.00;;;;;;4960175;28;20521;-77
2022/08/02 00:18:12;;;;;;;10.88;1.80;;;21.70;78.10;;;;;;4951253;28;20099;-81
2022/08/02 00:20:39;;;;;;;2.83;0.60;;;22.00;78.60;;;;;;4953158;28;20078;-79
2022/08/02 00:23:07;;;;;;;1.60;0.70;;;21.70;78.40;;;;;;4943958;28;20478;-81
2022/08/02 00:25:34;;;;;;;3.38;0.35;;;21.70;78.80;;;;;;4952803;28;20054;-82
2022/08/02 00:28:02;;;;;;;2.17;0.50;;;21.90;77.80;;;;;;4945233;28;20039;-81
2022/08/02 00:30:29;;;;;;;0.68;0.38;;;22.10;78.90;;;;;;4947369;28;20563;-82
2022/08/02 00:32:56;;;;;;;1.88;0.30;;;22.50;77.20;;;;;;4942356;28;20101;-82
2022/08/02 00:35:25;;;;;;;0.68;0.40;;;22.60;78.50;;;;;;4960612;28;20417;-81
2022/08/02 00:37:52;;;;;;;3.05;0.40;;;22.90;76.80;;;;;;4947227;28;20031;-81
2022/08/02 00:40:22;;;;;;;0.90;0.30;;;22.90;76.20;;;;;;4943220;28;20115;-81
2022/08/02 00:43:10;;;;;;;1.13;0.52;;;23.30;75.30;;;;;;4939051;28;20031;-79
2022/08/02 00:45:40;;;;;;;0.75;0.30;;;23.50;72.90;;;;;;4938955;28;20054;-81
2022/08/02 00:48:10;;;;;;;1.27;0.20;;;23.70;71.10;;;;;;4934235;28;20118;-82
2022/08/02 00:50:38;;;;;;;0.82;0.20;;;23.60;70.20;;;;;;4920846;28;20043;-79
2022/08/02 00:53:08;;;;;;;0.70;0.15;;;23.10;68.60;;;;;;4939127;28;20041;-77
2022/08/02 00:55:36;;;;;;;2.30;0.35;;;23.00;69.40;;;;;;4941950;28;20031;-77
2022/08/02 00:58:04;;;;;;;0.57;0.57;;;22.90;70.00;;;;;;4937789;28;20418;-80
2022/08/02 01:00:31;;;;;;;0.55;0.13;;;23.10;69.80;;;;;;4941396;28;20050;-79
2022/08/02 01:02:59;;;;;;;0.50;0.15;;;23.50;68.60;;;;;;4942211;28;20035;-78
2022/08/02 01:05:26;;;;;;;1.13;0.20;;;23.80;69.50;;;;;;4941607;28;20023;-78
2022/08/02 01:07:53;;;;;;;0.60;0.10;;;23.70;67.70;;;;;;4944006;28;20113;-80
2022/08/02 01:10:21;;;;;;;0.22;0.15;;;24.00;66.90;;;;;;4944624;28;20050;-76
2022/08/02 01:12:48;;;;;;;1.55;0.20;;;24.30;67.20;;;;;;4946514;28;20043;-84
2022/08/02 01:15:17;;;;;;;0.25;0.10;;;24.50;67.00;;;;;;4950255;28;20020;-76
2022/08/02 01:18:02;;;;;;;3.03;0.20;;;24.10;67.10;;;;;;4950186;28;20031;-79
2022/08/02 01:20:48;;;;;;;1.90;0.20;;;24.10;65.90;;;;;;4949464;28;20042;-80
2022/08/02 01:23:26;;;;;;;0.47;0.47;;;24.00;67.40;;;;;;4944914;28;20042;-77
2022/08/02 01:26:32;;;;;;;0.28;0.20;;;24.00;66.50;;;;;;4948527;28;20040;-79
2022/08/02 01:29:27;;;;;;;1.80;0.27;;;24.20;67.20;;;;;;4939119;28;20085;-76
2022/08/02 01:32:15;;;;;;;0.30;0.10;;;24.60;66.00;;;;;;4940045;28;20297;-78
2022/08/02 01:34:59;;;;;;;0.65;0.20;;;24.50;66.40;;;;;;4939674;28;20113;-81
2022/08/02 01:37:32;;;;;;;0.65;0.20;;;24.20;66.00;;;;;;4941950;28;20049;-81
2022/08/02 01:40:09;;;;;;;0.60;0.10;;;24.40;66.30;;;;;;4941062;28;20019;-81
2022/08/02 01:42:40;;;;;;;0.40;0.38;;;24.10;67.00;;;;;;4938727;28;20035;-79
2022/08/02 01:45:10;;;;;;;1.10;0.20;;;24.30;65.00;;;;;;4955849;28;20039;-79
2022/08/02 01:47:40;;;;;;;1.23;0.60;;;24.20;66.80;;;;;;4957368;28;20039;-79
2022/08/02 01:50:12;;;;;;;0.30;0.10;;;24.10;65.90;;;;;;4957678;28;20037;-82
2022/08/02 01:52:45;;;;;;;0.35;0.10;;;24.20;66.80;;;;;;4956815;28;20370;-79
2022/08/02 01:55:33;;;;;;;1.13;0.30;;;24.20;66.50;;;;;;4947555;28;20035;-81
2022/08/02 01:58:06;;;;;;;3.25;0.32;;;24.40;66.60;;;;;;4948845;28;20118;-80
2022/08/02 02:00:39;;;;;;;2.63;0.30;;;24.80;65.80;;;;;;4961113;28;20145;-79
2022/08/02 02:03:10;;;;;;;0.57;0.57;;;25.20;66.30;;;;;;4959944;28;20743;-80
2022/08/02 02:05:38;;;;;;;1.00;0.20;;;25.80;65.00;;;;;;4948467;28;20129;-83
2022/08/02 02:08:07;;;;;;;2.05;0.20;;;25.70;66.00;;;;;;4956565;28;20502;-79
2022/08/02 02:10:38;;;;;;;0.10;0.10;;;25.60;65.60;;;;;;4961242;28;20553;-81
2022/08/02 02:13:09;;;;;;;1.40;0.13;;;25.60;64.60;;;;;;4944469;28;20121;-81
2022/08/02 02:15:42;;;;;;;0.65;0.30;;;25.50;65.90;;;;;;4959104;28;20023;-77
2022/08/02 02:18:14;;;;;;;0.98;0.60;;;25.40;66.70;;;;;;4946757;28;20023;-77
2022/08/02 02:20:42;;;;;;;0.65;0.10;;;25.50;65.20;;;;;;4949626;28;20094;-75
2022/08/02 02:23:11;;;;;;;1.95;0.32;;;26.10;65.60;;;;;;4949574;28;20032;-76
2022/08/02 02:25:41;;;;;;;1.23;0.35;;;26.20;63.90;;;;;;4944688;28;20031;-77
2022/08/02 02:28:33;;;;;;;0.10;0.10;;;25.80;65.50;;;;;;4947235;28;20097;-77
2022/08/02 02:31:17;;;;;;;5.45;0.40;;;26.00;66.00;;;;;;4954494;28;20054;-79
2022/08/02 02:33:56;;;;;;;0.82;0.30;;;25.50;66.70;;;;;;4946645;28;20035;-75
2022/08/02 02:36:23;;;;;;;2.70;0.28;;;25.10;65.20;;;;;;4958768;28;20053;-79
2022/08/02 02:38:52;;;;;;;0.95;0.20;;;25.20;65.20;;;;;;4951882;28;20115;-81
2022/08/02 02:41:22;;;;;;;0.88;0.47;;;25.40;64.60;;;;;;4968633;28;20023;-81
2022/08/02 02:43:53;;;;;;;1.25;0.20;;;25.10;65.20;;;;;;4954130;28;20107;-77
2022/08/02 02:46:21;;;;;;;1.83;0.32;;;24.60;64.80;;;;;;4952444;28;20474;-80
2022/08/02 02:48:51;;;;;;;0.82;0.20;;;24.40;68.00;;;;;;4943815;28;20031;-78
2022/08/02 02:51:21;;;;;;;0.57;0.20;;;24.60;66.20;;;;;;4957635;28;20058;-77
2022/08/02 02:53:50;;;;;;;1.63;0.35;;;24.40;65.90;;;;;;4957261;28;20176;-75
2022/08/02 02:56:19;;;;;;;2.72;0.28;;;24.00;66.60;;;;;;4949263;28;20478;-77
2022/08/02 02:58:47;;;;;;;0.90;0.20;;;23.90;67.20;;;;;;4948890;28;20533;-78
2022/08/02 03:01:27;;;;;;;1.38;0.10;;;23.90;67.30;;;;;;4961626;28;20030;-79
2022/08/02 03:03:56;;;;;;;0.60;0.30;;;24.10;66.90;;;;;;4957800;28;20027;-79
2022/08/02 03:06:24;;;;;;;0.47;0.20;;;24.30;67.90;;;;;;4943263;28;20039;-78
2022/08/02 03:08:51;;;;;;;0.77;0.40;;;24.30;65.10;;;;;;4945710;28;20054;-81
2022/08/02 03:11:19;;;;;;;1.95;0.57;;;23.90;66.10;;;;;;4949052;28;20047;-75
2022/08/02 03:13:47;;;;;;;0.30;0.20;;;23.90;67.00;;;;;;4946115;28;20130;-80
2022/08/02 03:16:14;;;;;;;0.38;0.00;;;23.70;66.70;;;;;;4948685;28;20030;-76
2022/08/02 03:18:43;;;;;;;1.50;0.40;;;23.70;67.10;;;;;;4947721;28;20059;-75
2022/08/02 03:21:14;;;;;;;2.05;0.20;;;23.80;66.80;;;;;;4953577;28;20023;-77
2022/08/02 03:23:42;;;;;;;0.85;0.30;;;23.90;65.70;;;;;;4948073;28;20740;-76
2022/08/02 03:26:10;;;;;;;0.28;0.20;;;23.70;66.60;;;;;;4946774;28;20099;-75
2022/08/02 03:28:37;;;;;;;0.28;0.20;;;23.80;67.50;;;;;;4947220;29;20394;-75
2022/08/02 03:31:05;;;;;;;0.30;0.10;;;23.90;67.80;;;;;;4944890;29;20454;-76
2022/08/02 03:33:34;;;;;;;1.27;0.35;;;23.80;67.50;;;;;;4945898;28;20054;-75
2022/08/02 03:36:11;;;;;;;0.45;0.20;;;23.60;66.30;;;;;;4934110;29;20030;-76
2022/08/02 03:38:40;;;;;;;0.90;0.10;;;23.60;69.60;;;;;;4942114;29;20028;-74
2022/08/02 03:41:09;;;;;;;1.08;0.20;;;23.50;66.30;;;;;;4953219;28;20162;-73
2022/08/02 03:43:38;;;;;;;0.40;0.20;;;23.00;67.00;;;;;;4950520;29;20102;-74
2022/08/02 03:46:08;;;;;;;0.63;0.10;;;22.70;67.00;;;;;;4941639;29;20128;-75
2022/08/02 03:48:37;;;;;;;1.42;0.20;;;22.40;67.90;;;;;;4941050;28;20114;-75
2022/08/02 03:51:06;;;;;;;0.93;0.20;;;21.90;69.40;;;;;;4949245;29;20038;-76
2022/08/02 03:53:34;;;;;;;1.88;0.40;;;21.70;69.30;;;;;;4954486;29;20102;-76
2022/08/02 03:56:02;;;;;;;0.73;0.20;;;21.40;70.80;;;;;;4948206;29;20035;-74
2022/08/02 03:58:29;;;;;;;0.30;0.20;;;21.10;70.30;;;;;;4952987;29;20031;-74
2022/08/02 04:00:57;;;;;;;0.35;0.10;;;20.80;71.30;;;;;;4950137;29;20097;-76
2022/08/02 04:03:26;;;;;;;0.82;0.32;;;20.60;71.40;;;;;;4940668;28;20043;-74
2022/08/02 04:05:53;;;;;;;0.88;0.30;;;20.50;71.20;;;;;;4943035;28;20023;-79
2022/08/02 04:08:21;;;;;;;1.67;0.20;;;20.40;72.80;;;;;;4953579;29;20031;-74
2022/08/02 04:13:36;;;;;;;1.50;0.20;;;20.10;71.90;;;;;;4951895;29;20039;-76
2022/08/02 04:16:36;;;;;;;3.45;0.30;;;20.00;71.00;;;;;;4939941;29;20081;-78
2022/08/02 04:19:07;;;;;;;0.77;0.30;;;19.80;72.40;;;;;;4952333;29;20405;-78
2022/08/02 04:21:38;;;;;;;0.55;0.20;;;19.80;72.30;;;;;;4946242;29;20042;-83
2022/08/02 04:24:07;;;;;;;0.90;0.30;;;19.70;70.70;;;;;;4948455;29;20031;-80
2022/08/02 04:26:36;;;;;;;0.63;0.25;;;19.60;71.10;;;;;;4951480;29;20024;-78
2022/08/02 04:29:05;;;;;;;2.40;0.10;;;19.40;70.80;;;;;;4948522;29;20038;-81
2022/08/02 04:31:32;;;;;;;0.32;0.13;;;19.30;69.70;;;;;;4947795;28;20048;-81
2022/08/02 04:34:01;;;;;;;1.88;0.10;;;19.30;67.60;;;;;;4944414;28;20402;-80
2022/08/02 04:36:29;;;;;;;0.17;0.10;;;19.20;66.50;;;;;;4951414;29;20398;-78
2022/08/02 04:38:56;;;;;;;0.30;0.30;;;19.30;68.90;;;;;;4948727;29;20054;-76
2022/08/02 04:41:35;;;;;;;1.70;0.20;;;19.20;67.70;;;;;;4952273;29;20067;-77
2022/08/02 04:44:03;;;;;;;0.55;0.10;;;19.20;67.90;;;;;;4947279;28;20147;-76
2022/08/02 04:46:30;;;;;;;1.35;0.10;;;19.20;67.00;;;;;;4952314;29;20042;-77
2022/08/02 04:48:58;;;;;;;0.40;0.20;;;19.10;67.20;;;;;;4947928;29;20067;-78
2022/08/02 04:51:25;;;;;;;0.30;0.20;;;19.10;68.80;;;;;;4950053;28;20056;-78
2022/08/02 04:53:53;;;;;;;0.20;0.10;;;19.00;70.40;;;;;;4946408;28;20042;-78
2022/08/02 04:56:20;;;;;;;0.30;0.20;;;19.00;68.90;;;;;;4950137;29;20055;-79
2022/08/02 04:58:47;;;;;;;0.60;0.13;;;18.90;69.90;;;;;;4948466;28;20068;-76
2022/08/02 05:01:15;;;;;;;0.40;0.10;;;18.80;69.60;;;;;;4945769;28;20027;-77
2022/08/02 05:03:42;;;;;;;1.13;0.20;;;18.80;71.30;;;;;;4937365;28;21532;-81
2022/08/02 05:06:09;;;;;;;0.35;0.20;;;18.80;71.30;;;;;;4945410;28;20032;-79
2022/08/02 05:08:37;;;;;;;0.63;0.20;;;18.90;70.70;;;;;;4950743;29;20062;-78
2022/08/02 05:11:04;;;;;;;0.20;0.13;;;18.90;70.90;;;;;;4951955;29;20039;-78
2022/08/02 05:13:32;;;;;;;0.45;0.30;;;18.90;71.60;;;;;;4950492;29;20435;-78
2022/08/02 05:16:01;;;;;;;1.80;0.20;;;18.90;71.50;;;;;;4945289;28;20034;-77
2022/08/02 05:18:28;;;;;;;2.10;0.17;;;18.90;70.70;;;;;;4943711;29;20040;-78
2022/08/02 05:20:56;;;;;;;0.50;0.20;;;18.90;70.60;;;;;;4948157;29;20043;-79
2022/08/02 05:23:23;;;;;;;0.52;0.10;;;18.90;70.00;;;;;;4946573;29;20040;-75
2022/08/02 05:25:51;;;;;;;1.85;0.20;;;18.90;69.40;;;;;;4948119;28;20042;-77
2022/08/02 05:28:18;;;;;;;0.40;0.20;;;18.80;72.00;;;;;;4947330;29;20476;-77
2022/08/02 05:30:46;;;;;;;2.88;0.45;;;18.80;71.90;;;;;;4946574;29;20057;-76
2022/08/02 05:33:13;;;;;;;0.25;0.10;;;18.80;70.00;;;;;;4950502;28;20036;-78
2022/08/02 05:35:40;;;;;;;0.25;0.10;;;18.70;72.10;;;;;;4938589;29;20040;-73
2022/08/02 05:38:08;;;;;;;2.22;0.10;;;18.70;70.40;;;;;;4942819;29;20015;-76
2022/08/02 05:40:36;;;;;;;1.13;0.20;;;18.70;70.30;;;;;;4938618;29;20101;-75
2022/08/02 05:43:11;;;;;;;0.45;0.10;;;18.80;71.20;;;;;;4943899;29;20093;-74
2022/08/02 05:45:38;;;;;;;0.77;0.20;;;18.80;71.20;;;;;;4941270;28;20413;-79
2022/08/02 05:48:06;;;;;;;0.15;0.13;;;18.90;71.00;;;;;;4945347;29;20094;-79
2022/08/02 05:50:43;;;;;;;0.77;0.10;;;18.90;70.60;;;;;;4943685;29;20042;-82
2022/08/02 05:53:19;;;;;;;0.40;0.10;;;18.90;71.00;;;;;;4945197;29;20042;-76
2022/08/02 05:55:55;;;;;;;0.95;0.28;;;19.00;71.30;;;;;;4944055;29;20055;-75
2022/08/02 05:58:43;;;;;;;0.82;0.10;;;19.00;71.40;;;;;;4944231;29;20050;-77
2022/08/02 06:01:20;;;;;;;0.22;0.20;;;19.10;70.10;;;;;;4943502;29;20031;-78
2022/08/02 06:03:51;;;;;;;0.65;0.10;;;19.10;70.00;;;;;;4942893;29;20036;-78
2022/08/02 06:06:22;;;;;;;0.85;0.15;;;19.20;71.20;;;;;;4943422;29;20497;-78
2022/08/02 06:09:13;;;;;;;0.38;0.20;;;19.30;71.30;;;;;;4942238;29;20054;-78
2022/08/02 06:11:46;;;;;;;0.57;0.20;;;19.40;70.90;;;;;;4948183;29;20122;-81
2022/08/02 06:14:14;;;;;;;0.70;0.15;;;19.40;70.80;;;;;;4944499;29;20027;-81
2022/08/02 06:16:43;;;;;;;0.75;0.40;;;19.40;70.80;;;;;;4944897;29;20136;-79
2022/08/02 06:19:14;;;;;;;2.90;0.30;;;19.40;70.70;;;;;;4942825;29;20034;-79
2022/08/02 06:21:44;;;;;;;0.38;0.22;;;19.40;71.40;;;;;;4944608;29;20106;-79
2022/08/02 06:24:12;;;;;;;0.30;0.20;;;19.40;71.50;;;;;;4944909;29;20058;-81
2022/08/02 06:26:42;;;;;;;0.77;0.30;;;19.40;71.10;;;;;;4948521;29;20375;-75
2022/08/02 06:29:12;;;;;;;1.30;0.13;;;19.30;71.40;;;;;;4942088;28;20209;-75
2022/08/02 06:31:41;;;;;;;0.10;0.10;;;19.20;70.80;;;;;;4943184;29;20039;-79
2022/08/02 06:34:09;;;;;;;0.73;0.20;;;19.10;70.70;;;;;;4942670;29;20035;-80
2022/08/02 06:37:09;;;;;;;0.25;0.20;;;19.00;71.20;;;;;;4943313;29;20375;-79
2022/08/02 06:39:49;;;;;;;1.58;0.30;;;18.90;73.00;;;;;;4942037;29;20047;-76
2022/08/02 06:42:25;;;;;;;1.17;0.20;;;18.70;73.00;;;;;;4942360;29;20031;-76
2022/08/02 06:44:53;;;;;;;6.20;0.40;;;18.60;72.80;;;;;;4941194;29;20039;-78
2022/08/02 06:47:20;;;;;;;3.72;0.20;;;18.50;73.80;;;;;;4941238;29;20102;-76
2022/08/02 06:49:48;;;;;;;1.13;0.43;;;18.40;74.40;;;;;;4941415;29;20121;-77
2022/08/02 06:52:15;;;;;;;10.75;0.63;;;18.30;74.40;;;;;;4943155;29;20031;-75
2022/08/02 06:54:42;;;;;;;1.38;0.20;;;18.10;74.80;;;;;;4937763;29;20183;-78
2022/08/02 06:57:10;;;;;;;2.53;0.35;;;18.00;76.20;;;;;;4944063;28;20031;-79
2022/08/02 06:59:37;;;;;;;1.88;0.40;;;17.80;76.50;;;;;;4950406;28;20051;-81
2022/08/02 07:02:05;;;;;;;1.40;0.35;;;17.60;77.10;;;;;;4940394;28;20055;-79
2022/08/02 07:04:33;;;;;;;1.08;0.30;;;17.40;77.80;;;;;;4943515;28;20038;-82
2022/08/02 07:07:01;;;;;;;1.13;0.20;;;17.20;78.60;;;;;;4946359;28;20070;-79
2022/08/02 07:09:28;;;;;;;1.30;0.65;;;17.00;79.00;;;;;;4950871;29;20470;-82
2022/08/02 07:11:56;;;;;;;0.75;0.28;;;16.70;79.50;;;;;;4938630;28;20062;-82
2022/08/02 07:14:23;;;;;;;2.28;0.28;;;16.60;80.90;;;;;;4930119;29;20129;-81
2022/08/02 07:16:52;;;;;;;4.60;0.40;;;16.40;81.80;;;;;;4952973;29;20031;-81
2022/08/02 07:19:19;;;;;;;1.88;0.63;;;16.30;82.10;;;;;;4951633;29;20035;-81
2022/08/02 07:21:47;;;;;;;2.97;0.65;;;16.30;81.80;;;;;;4951948;29;20391;-83
2022/08/02 07:24:14;;;;;;;3.47;0.50;;;16.30;82.70;;;;;;4951955;28;20023;-76
2022/08/02 07:26:41;;;;;;;1.77;0.50;;;16.10;82.20;;;;;;4953774;29;20035;-77
2022/08/02 07:29:09;;;;;;;0.90;0.30;;;16.10;82.10;;;;;;4941014;28;20046;-78
2022/08/02 07:31:36;;;;;;;1.50;0.75;;;16.00;82.90;;;;;;4950086;28;20095;-77
2022/08/02 07:34:04;;;;;;;4.05;0.70;;;16.00;82.90;;;;;;4939781;29;20134;-79
2022/08/02 07:36:31;;;;;;;1.20;0.40;;;15.90;82.80;;;;;;4947272;29;20498;-80
2022/08/02 07:38:59;;;;;;;1.40;0.38;;;15.80;83.60;;;;;;4941829;29;20129;-80
2022/08/02 07:41:26;;;;;;;1.02;0.60;;;15.70;84.20;;;;;;4939013;29;20118;-80
2022/08/02 07:43:53;;;;;;;1.10;0.43;;;15.60;85.50;;;;;;4941352;29;20039;-79
2022/08/02 07:46:21;;;;;;;2.72;0.43;;;15.40;85.80;;;;;;4930221;29;20759;-81
2022/08/02 07:48:48;;;;;;;1.23;0.30;;;15.20;87.60;;;;;;4945275;29;20032;-81
2022/08/02 07:51:16;;;;;;;1.77;0.80;;;15.00;87.50;;;;;;4948320;28;20039;-84
2022/08/02 07:53:43;;;;;;;1.77;0.50;;;14.80;87.70;;;;;;4945737;29;20890;-84
2022/08/02 07:56:10;;;;;;;1.27;0.90;;;14.70;88.30;;;;;;4943974;28;20511;-82
2022/08/02 07:58:38;;;;;;;2.53;0.80;;;14.60;87.80;;;;;;4942359;28;20494;-80
2022/08/02 08:01:05;;;;;;;0.93;0.30;;;14.40;89.10;;;;;;4949571;28;20023;-80
2022/08/02 08:03:33;;;;;;;0.75;0.45;;;14.30;89.60;;;;;;4943901;28;20034;-78
2022/08/02 08:06:00;;;;;;;0.85;0.40;;;14.20;89.40;;;;;;4939169;29;20032;-79
2022/08/02 08:08:27;;;;;;;0.43;0.28;;;14.10;90.10;;;;;;4943219;28;20031;-79
2022/08/02 08:10:55;;;;;;;0.68;0.30;;;14.00;90.60;;;;;;4951192;29;20683;-81
2022/08/02 08:13:22;;;;;;;1.23;0.55;;;13.90;90.90;;;;;;4943415;28;20182;-77
2022/08/02 08:15:50;;;;;;;3.55;0.35;;;13.70;91.70;;;;;;4952378;29;20042;-81
2022/08/02 08:18:17;;;;;;;2.05;1.23;;;13.60;91.60;;;;;;4945397;29;20091;-79
2022/08/02 08:20:44;;;;;;;3.13;0.57;;;13.50;91.70;;;;;;4934783;29;20035;-79
2022/08/02 08:23:12;;;;;;;2.97;1.02;;;13.40;92.00;;;;;;4945172;28;20035;-80
2022/08/02 08:25:39;;;;;;;3.60;0.82;;;13.30;92.60;;;;;;4953133;29;20090;-79
2022/08/02 08:28:06;;;;;;;1.48;0.90;;;13.20;92.70;;;;;;4950184;29;20023;-83
2022/08/02 08:30:35;;;;;;;2.83;1.27;;;13.10;93.00;;;;;;4945043;28;20039;-77
2022/08/02 08:33:03;;;;;;;1.95;0.65;;;13.10;93.20;;;;;;4941349;28;20390;-81
2022/08/02 08:35:30;;;;;;;5.43;1.92;;;13.00;93.30;;;;;;4941611;28;20039;-82
2022/08/02 08:37:58;;;;;;;4.30;1.50;;;12.90;93.20;;;;;;4934726;29;20042;-82
2022/08/02 08:40:25;;;;;;;2.13;1.25;;;12.80;93.00;;;;;;4933619;29;20028;-79
2022/08/02 08:42:53;;;;;;;5.60;2.00;;;12.70;93.20;;;;;;4934330;28;20043;-76
2022/08/02 08:45:21;;;;;;;8.00;1.98;;;12.70;93.00;;;;;;4938656;28;21702;-77
2022/08/02 08:47:59;;;;;;;4.80;2.15;;;12.60;92.90;;;;;;4940131;29;20162;-77
2022/08/02 08:50:29;;;;;;;9.88;2.55;;;12.50;93.00;;;;;;4939772;29;20042;-77
2022/08/02 08:53:04;;;;;;;10.75;3.75;;;12.50;93.00;;;;;;4948635;29;20089;-75
2022/08/02 08:55:33;;;;;;;12.65;2.75;;;12.50;92.90;;;;;;4962832;28;20029;-78
2022/08/02 08:58:01;;;;;;;9.02;3.25;;;12.50;93.20;;;;;;4954033;28;20126;-79
2022/08/02 09:00:34;;;;;;;7.97;3.15;;;12.50;93.60;;;;;;4942129;29;20047;-80
2022/08/02 09:03:05;;;;;;;5.90;3.22;;;12.40;94.20;;;;;;4940541;29;20042;-80
2022/08/02 09:05:38;;;;;;;9.30;4.05;;;12.40;94.40;;;;;;4940360;29;20027;-79
2022/08/02 09:08:06;;;;;;;5.43;2.88;;;12.40;94.40;;;;;;4940134;29;20043;-79
2022/08/02 09:10:33;;;;;;;10.98;2.83;;;12.30;94.50;;;;;;4939679;29;20042;-79
2022/08/02 09:13:11;;;;;;;4.00;1.83;;;12.20;94.30;;;;;;4938888;29;20046;-80
2022/08/02 09:15:40;;;;;;;6.97;2.03;;;12.10;94.30;;;;;;4944055;29;20360;-81
2022/08/02 09:18:08;;;;;;;10.13;2.35;;;12.00;94.80;;;;;;4936820;29;20622;-78
2022/08/02 09:20:53;;;;;;;4.00;2.30;;;12.00;94.80;;;;;;4937961;28;20019;-75
2022/08/02 09:23:21;;;;;;;11.27;2.35;;;12.00;94.90;;;;;;4943163;29;20031;-76
2022/08/02 09:26:03;;;;;;;4.85;1.70;;;11.90;94.80;;;;;;4944603;28;20517;-78
2022/08/02 09:28:33;;;;;;;7.50;3.15;;;11.90;95.00;;;;;;4942477;29;20031;-79
2022/08/02 09:31:07;;;;;;;4.70;2.00;;;11.80;95.10;;;;;;4943614;29;20039;-81
2022/08/02 09:33:36;;;;;;;8.98;2.58;;;11.80;95.00;;;;;;4942683;29;21742;-81
2022/08/02 09:36:10;;;;;;;4.20;1.75;;;11.70;95.30;;;;;;4943768;29;20041;-79
2022/08/02 09:38:39;;;;;;;4.60;2.05;;;11.70;95.00;;;;;;4943075;29;20065;-80
2022/08/02 09:41:21;;;;;;;4.13;1.92;;;11.70;94.90;;;;;;4944828;29;20276;-80
2022/08/02 09:43:49;;;;;;;5.75;1.60;;;11.70;94.80;;;;;;4942980;28;20051;-81
2022/08/02 09:46:19;;;;;;;4.10;1.83;;;11.80;94.70;;;;;;4947171;29;20031;-78
2022/08/02 09:48:58;;;;;;;3.63;1.65;;;11.80;95.00;;;;;;4942513;29;20027;-80
2022/08/02 09:51:28;;;;;;;6.05;2.83;;;11.80;94.90;;;;;;4943918;29;20054;-81
2022/08/02 09:54:05;;;;;;;6.75;2.78;;;11.80;94.60;;;;;;4944478;29;20478;-80
2022/08/02 09:56:48;;;;;;;7.75;4.20;;;11.80;94.50;;;;;;4941324;29;20036;-79
2022/08/02 09:59:17;;;;;;;7.82;4.30;;;11.80;94.50;;;;;;4944127;29;20050;-79
2022/08/02 10:01:46;;;;;;;16.50;6.07;;;11.80;94.70;;;;;;4941301;28;20039;-78
2022/08/02 10:04:15;;;;;;;9.23;5.10;;;11.80;95.00;;;;;;4943012;29;20557;-78
2022/08/02 10:06:43;;;;;;;14.57;6.00;;;11.80;95.40;;;;;;4943227;29;20482;-80
2022/08/02 10:09:12;;;;;;;11.25;5.95;;;11.80;95.80;;;;;;4943656;28;20027;-78
2022/08/02 10:11:41;;;;;;;10.70;5.78;;;11.90;96.00;;;;;;4944359;29;20113;-78
2022/08/02 10:14:10;;;;;;;10.70;5.38;;;11.80;95.80;;;;;;4943234;28;20058;-81
2022/08/02 10:16:42;;;;;;;10.02;4.30;;;11.80;95.50;;;;;;4936136;29;20055;-78
2022/08/02 10:19:10;;;;;;;8.70;5.53;;;11.90;95.60;;;;;;4943491;29;20390;-81
2022/08/02 10:21:47;;;;;;;11.43;5.75;;;11.80;95.80;;;;;;4940177;28;20035;-79
2022/08/02 10:24:27;;;;;;;7.72;4.53;;;11.80;95.90;;;;;;4941424;29;20043;-82
2022/08/02 10:26:57;;;;;;;12.57;6.15;;;11.80;96.10;;;;;;4947459;29;20027;-82
2022/08/02 10:29:35;;;;;;;9.48;5.40;;;11.70;96.10;;;;;;4942009;29;20050;-83
2022/08/02 10:32:27;;;;;;;9.32;5.38;;;11.70;96.20;;;;;;4944161;28;20058;-84
2022/08/02 10:35:17;;;;;;;10.63;5.50;;;11.70;96.40;;;;;;4940722;28;20153;-83
2022/08/02 10:37:47;;;;;;;10.23;5.18;;;11.60;97.20;;;;;;4950139;29;20504;-84
2022/08/02 10:40:27;;;;;;;9.13;4.55;;;11.60;97.60;;;;;;4938306;29;20027;-83
2022/08/02 10:42:58;;;;;;;12.20;5.45;;;11.50;97.70;;;;;;4938983;29;20031;-84
2022/08/02 10:45:25;;;;;;;10.95;4.95;;;11.50;98.10;;;;;;4941974;29;20501;-83
2022/08/02 10:48:13;;;;;;;10.60;5.50;;;11.50;98.10;;;;;;4940097;29;20168;-83
2022/08/02 10:50:49;;;;;;;10.50;6.70;;;11.40;98.10;;;;;;4943007;28;20048;-83
2022/08/02 10:53:29;;;;;;;;;;;11.30;98.00;;;;;;4934097;29;20035;-81
2022/08/02 10:56:05;;;;;;;7.85;6.00;;;11.20;98.00;;;;;;4943361;28;19920;-82
2022/08/02 10:58:33;;;;;;;14.55;7.25;;;11.20;98.00;;;;;;4943291;29;20071;-81
2022/08/02 11:01:25;;;;;;;8.95;7.28;;;11.20;98.20;;;;;;4943669;29;20027;-80
2022/08/02 11:03:59;;;;;;;9.98;5.75;;;11.10;98.10;;;;;;4934300;29;20071;-82
2022/08/02 11:06:27;;;;;;;10.35;3.97;;;11.10;98.20;;;;;;4945243;29;20810;-83
2022/08/02 11:09:33;;;;;;;6.47;4.15;;;11.20;98.20;;;;;;4924700;29;20114;-82
2022/08/02 11:12:09;;;;;;;7.18;4.03;;;11.20;98.30;;;;;;4946321;29;20043;-82
2022/08/02 11:14:39;;;;;;;3.20;2.35;;;11.20;98.30;;;;;;4942159;29;20040;-83
2022/08/02 11:17:13;;;;;;;5.45;2.83;;;11.20;98.20;;;;;;4940924;29;20027;-82
2022/08/02 11:20:11;;;;;;;7.70;3.08;;;11.20;98.10;;;;;;4945971;28;20474;-81
2022/08/02 11:22:42;;;;;;;6.55;2.55;;;11.20;98.30;;;;;;4945131;29;20043;-82
2022/08/02 11:25:28;;;;;;;5.38;2.80;;;11.20;98.30;;;;;;4953826;29;20058;-82
2022/08/02 11:27:57;;;;;;;8.57;2.92;;;11.20;98.40;;;;;;4941378;29;20035;-81
2022/08/02 11:30:25;;;;;;;6.88;2.85;;;11.20;98.70;;;;;;4941872;29;20416;-82
2022/08/02 11:32:58;;;;;;;5.45;2.78;;;11.20;98.80;;;;;;4942489;28;20050;-81
2022/08/02 11:35:39;;;;;;;7.18;2.65;;;11.20;98.60;;;;;;4949574;28;20079;-80
2022/08/02 11:38:24;;;;;;;3.80;2.42;;;11.30;98.40;;;;;;4941022;28;20383;-79
2022/08/02 11:40:52;;;;;;;6.53;3.42;;;11.40;98.20;;;;;;4944463;28;20117;-80
2022/08/02 11:43:26;;;;;;;7.82;2.97;;;11.40;98.10;;;;;;4947293;28;20023;-80
2022/08/02 11:45:55;;;;;;;6.03;3.05;;;11.50;98.10;;;;;;4940015;29;20059;-79
2022/08/02 11:48:40;;;;;;;6.50;3.08;;;11.50;98.30;;;;;;4933404;29;20039;-81
2022/08/02 11:51:16;;;;;;;3.60;2.40;;;11.50;98.40;;;;;;4943738;28;20045;-79
2022/08/02 11:53:58;;;;;;;8.00;3.15;;;11.50;98.60;;;;;;4940157;28;20043;-79
2022/08/02 11:56:33;;;;;;;5.53;2.85;;;11.50;98.30;;;;;;4945685;29;20054;-78
2022/08/02 11:59:11;;;;;;;5.15;1.95;;;11.50;98.50;;;;;;4939281;29;20027;-78
2022/08/02 12:01:39;;;;;;;4.82;2.67;;;11.60;98.40;;;;;;4940819;28;20221;-80
2022/08/02 12:04:07;;;;;;;3.60;1.65;;;11.60;98.50;;;;;;4925028;29;20023;-79
2022/08/02 12:06:35;;;;;;;2.83;1.67;;;11.50;98.60;;;;;;4944110;28;20023;-80
2022/08/02 12:09:13;;;;;;;4.28;2.53;;;11.60;98.70;;;;;;4943878;28;20035;-79
2022/08/02 12:11:42;;;;;;;2.63;1.90;;;11.60;98.70;;;;;;4950170;28;20036;-81
2022/08/02 12:14:09;;;;;;;4.60;2.00;;;11.50;99.00;;;;;;4947267;28;20028;-79
2022/08/02 12:19:26;;;;;;;4.05;2.05;;;11.40;99.10;;;;;;4937535;28;20102;-80
2022/08/02 12:22:11;;;;;;;3.17;1.63;;;11.40;99.10;;;;;;4941784;29;20150;-81
2022/08/02 12:24:41;;;;;;;4.57;2.00;;;11.40;98.90;;;;;;4943383;28;20023;-79
2022/08/02 12:27:09;;;;;;;4.63;1.92;;;11.40;99.00;;;;;;4941897;28;20023;-79
2022/08/02 12:29:39;;;;;;;5.18;3.03;;;11.40;99.00;;;;;;4935810;28;20054;-79
2022/08/02 12:32:07;;;;;;;7.90;3.28;;;11.40;99.20;;;;;;4947206;29;20321;-79
2022/08/02 12:34:35;;;;;;;7.20;3.75;;;11.40;99.40;;;;;;4941966;28;20043;-80
2022/08/02 12:37:10;;;;;;;10.65;5.07;;;11.30;99.60;;;;;;4948157;28;20034;-81
2022/08/02 12:39:43;;;;;;;8.85;5.50;;;11.30;99.90;;;;;;4934616;29;20027;-79
2022/08/02 12:42:13;;;;;;;11.15;5.47;;;11.20;99.90;;;;;;4940983;29;20069;-81
2022/08/02 12:44:57;;;;;;;10.23;4.70;;;11.20;99.90;;;;;;4937425;29;20029;-79
2022/08/02 12:47:26;;;;;;;8.85;4.95;;;11.10;99.90;;;;;;4937489;29;20028;-80
2022/08/02 12:50:13;;;;;;;11.13;5.47;;;11.10;99.90;;;;;;4939241;29;20034;-82
2022/08/02 12:52:40;;;;;;;8.32;5.07;;;11.00;99.90;;;;;;4938770;29;20386;-80
2022/08/02 12:55:21;;;;;;;11.60;5.70;;;11.00;99.90;;;;;;4940501;28;20031;-79
2022/08/02 12:57:58;;;;;;;15.68;6.43;;;10.90;99.90;;;;;;4946445;28;20142;-79
2022/08/02 13:00:31;;;;;;;8.30;4.78;;;10.80;99.90;;;;;;4948522;28;20038;-80
2022/08/02 13:02:59;;;;;;;10.68;5.75;;;10.80;99.90;;;;;;4951810;29;20450;-80
2022/08/02 13:05:29;;;;;;;11.20;6.35;;;10.70;99.90;;;;;;4947790;28;20536;-80
2022/08/02 13:07:58;;;;;;;12.70;6.85;;;10.60;99.90;;;;;;4948200;28;20040;-79
2022/08/02 13:10:26;;;;;;;9.38;6.07;;;10.60;99.90;;;;;;4945442;28;20459;-79
2022/08/02 13:12:54;;;;;;;10.88;5.82;;;10.60;99.90;;;;;;4942745;28;20482;-80